Time;durP1;ratioP1;P1;durP2;ratioP2;P2;SDS_P1;SDS_P2;PMS_P1;PMS_P2;Temp;Humidity;BMP_temperature;BMP_pressure;BME280_temperature;BME280_humidity;BME280_pressure;Samples;Min_cycle;Max_cycle;Signal;HPM_P1;HPM_P2
2023/09/05 00:02:19;;;;;;;7.37;3.90;;;17.40;14.00;;;;;;5027918;28;20888;-63
2023/09/05 00:04:46;;;;;;;6.90;3.70;;;17.40;14.30;;;;;;5023151;28;20533;-64
2023/09/05 00:07:13;;;;;;;7.30;3.90;;;17.30;13.70;;;;;;5027832;28;20454;-64
2023/09/05 00:09:40;;;;;;;6.50;3.83;;;17.30;13.60;;;;;;5020020;28;20467;-65
2023/09/05 00:12:09;;;;;;;6.50;4.20;;;17.30;13.60;;;;;;5020220;22;21392;-63
2023/09/05 00:14:36;;;;;;;5.60;3.57;;;17.30;13.60;;;;;;5004863;28;20490;-63
2023/09/05 00:17:03;;;;;;;5.97;3.70;;;17.20;13.50;;;;;;5005210;28;20478;-63
2023/09/05 00:19:30;;;;;;;5.30;3.30;;;17.20;13.50;;;;;;5005865;28;20511;-63
2023/09/05 00:21:57;;;;;;;6.27;3.30;;;17.10;13.50;;;;;;5009263;28;20467;-63
2023/09/05 00:24:25;;;;;;;8.00;3.60;;;17.10;13.50;;;;;;5005943;28;21163;-63
2023/09/05 00:26:52;;;;;;;6.70;4.47;;;17.20;13.50;;;;;;5004422;28;20472;-62
2023/09/05 00:29:20;;;;;;;6.50;4.30;;;17.20;13.50;;;;;;5006691;28;20501;-63
2023/09/05 00:31:47;;;;;;;7.03;3.77;;;17.10;13.60;;;;;;5005202;28;20479;-62
2023/09/05 00:34:14;;;;;;;6.70;3.70;;;17.10;13.40;;;;;;5003657;28;20588;-62
2023/09/05 00:36:41;;;;;;;7.77;3.87;;;17.10;13.60;;;;;;5008432;28;20479;-63
2023/09/05 00:39:08;;;;;;;7.23;3.33;;;17.10;13.60;;;;;;5008091;28;20890;-62
2023/09/05 00:41:37;;;;;;;6.93;3.90;;;17.10;13.60;;;;;;5002985;28;20662;-64
2023/09/05 00:44:05;;;;;;;7.00;3.87;;;17.10;14.10;;;;;;5001732;28;20488;-65
2023/09/05 00:46:33;;;;;;;6.33;3.70;;;17.10;13.60;;;;;;5005516;28;20532;-65
2023/09/05 00:49:02;;;;;;;5.40;3.10;;;17.10;13.50;;;;;;5007794;28;20830;-65
2023/09/05 00:51:31;;;;;;;6.00;3.20;;;17.00;13.90;;;;;;5001332;28;20475;-64
2023/09/05 00:53:59;;;;;;;6.47;3.50;;;17.00;13.40;;;;;;5011735;28;20534;-64
2023/09/05 00:56:26;;;;;;;8.80;3.20;;;17.00;13.30;;;;;;5008645;28;20480;-64
2023/09/05 00:58:53;;;;;;;7.90;3.60;;;17.00;13.20;;;;;;5003470;28;20472;-64
2023/09/05 01:01:19;;;;;;;4.97;3.03;;;17.00;13.30;;;;;;5006180;28;20475;-64
2023/09/05 01:03:47;;;;;;;6.47;3.40;;;17.00;13.30;;;;;;5002211;28;20519;-64
2023/09/05 01:06:25;;;;;;;7.47;4.07;;;17.00;13.30;;;;;;5007946;28;20479;-64
2023/09/05 01:08:57;;;;;;;6.70;3.83;;;17.00;13.50;;;;;;5003827;28;20514;-64
2023/09/05 01:11:25;;;;;;;7.00;4.83;;;16.90;13.80;;;;;;5005734;28;20475;-64
2023/09/05 01:13:52;;;;;;;8.13;4.77;;;16.90;14.60;;;;;;5004041;28;20494;-64
2023/09/05 01:16:18;;;;;;;8.00;5.97;;;16.90;15.00;;;;;;5007379;28;20475;-64
2023/09/05 01:18:46;;;;;;;8.10;5.93;;;16.80;15.40;;;;;;5006091;28;20471;-64
2023/09/05 01:21:21;;;;;;;9.40;6.03;;;16.80;16.30;;;;;;5004693;28;20480;-64
2023/09/05 01:23:54;;;;;;;9.63;6.50;;;16.80;17.30;;;;;;5001348;28;20541;-64
2023/09/05 01:26:22;;;;;;;8.20;5.60;;;16.70;17.70;;;;;;5005376;28;20467;-64
2023/09/05 01:28:51;;;;;;;9.63;6.70;;;16.70;18.10;;;;;;5005230;28;20478;-62
2023/09/05 01:31:19;;;;;;;8.23;5.70;;;16.70;18.30;;;;;;5003872;28;20651;-62
2023/09/05 01:33:45;;;;;;;13.60;8.20;;;16.60;18.50;;;;;;5007901;28;20491;-62
2023/09/05 01:36:12;;;;;;;11.87;7.53;;;16.50;18.90;;;;;;5006852;28;20584;-62
2023/09/05 01:38:39;;;;;;;12.17;8.40;;;16.50;19.10;;;;;;5008177;28;20479;-62
2023/09/05 01:41:05;;;;;;;10.03;6.83;;;16.50;19.30;;;;;;5010252;28;21199;-62
2023/09/05 01:43:33;;;;;;;10.43;6.70;;;16.40;19.70;;;;;;5008554;28;20483;-62
2023/09/05 01:46:00;;;;;;;9.93;7.10;;;16.40;19.90;;;;;;5007991;28;20475;-62
2023/09/05 01:48:27;;;;;;;10.60;7.07;;;16.30;19.90;;;;;;5010759;28;20452;-64
2023/09/05 01:50:53;;;;;;;9.40;6.20;;;16.30;20.00;;;;;;5010444;28;20498;-64
2023/09/05 01:53:20;;;;;;;10.43;6.37;;;16.30;20.00;;;;;;5005795;28;20498;-64
2023/09/05 01:55:47;;;;;;;7.50;5.47;;;16.30;19.90;;;;;;5009306;28;20475;-62
2023/09/05 01:58:13;;;;;;;8.67;5.60;;;16.20;19.90;;;;;;5005443;28;20995;-62
2023/09/05 02:00:41;;;;;;;9.03;6.43;;;16.20;20.10;;;;;;5009043;28;20498;-64
2023/09/05 02:03:09;;;;;;;9.83;6.20;;;16.10;20.10;;;;;;5005669;28;20488;-64
2023/09/05 02:05:36;;;;;;;9.30;5.93;;;16.10;20.20;;;;;;5007680;28;20470;-64
2023/09/05 02:08:03;;;;;;;12.63;6.03;;;16.10;20.20;;;;;;5009761;28;20967;-64
2023/09/05 02:10:31;;;;;;;11.83;6.87;;;16.10;20.40;;;;;;5008637;28;20468;-64
2023/09/05 02:12:57;;;;;;;10.30;6.60;;;16.10;20.30;;;;;;5007927;28;21054;-64
2023/09/05 02:15:24;;;;;;;11.37;6.93;;;16.00;20.50;;;;;;5009795;28;20477;-64
2023/09/05 02:17:55;;;;;;;11.10;6.10;;;16.00;20.80;;;;;;5008253;28;20858;-64
2023/09/05 02:20:23;;;;;;;8.83;6.13;;;15.90;20.90;;;;;;5007658;28;20461;-64
2023/09/05 02:22:50;;;;;;;9.73;5.70;;;15.90;20.90;;;;;;5007812;28;20890;-62
2023/09/05 02:25:17;;;;;;;8.30;5.50;;;15.90;21.00;;;;;;5008207;28;20463;-62
2023/09/05 02:27:43;;;;;;;8.50;5.67;;;15.90;20.90;;;;;;5007091;28;20463;-62
2023/09/05 02:30:11;;;;;;;9.23;5.53;;;15.80;21.20;;;;;;5007749;28;20480;-62
2023/09/05 02:32:37;;;;;;;8.40;5.70;;;15.80;21.50;;;;;;5002953;28;20480;-62
2023/09/05 02:35:06;;;;;;;7.90;5.70;;;15.80;21.30;;;;;;5010790;28;20468;-62
2023/09/05 02:37:33;;;;;;;9.53;5.97;;;15.70;21.60;;;;;;5007387;28;20483;-62
2023/09/05 02:39:59;;;;;;;8.63;4.93;;;15.70;21.60;;;;;;5008302;28;20700;-62
2023/09/05 02:42:26;;;;;;;8.37;5.27;;;15.70;21.80;;;;;;5008753;28;20972;-64
2023/09/05 02:44:53;;;;;;;10.60;6.80;;;15.60;22.00;;;;;;5008093;28;20491;-64
2023/09/05 02:47:20;;;;;;;9.80;5.93;;;15.60;22.30;;;;;;5007192;28;20460;-64
2023/09/05 02:49:47;;;;;;;11.00;7.27;;;15.60;22.30;;;;;;5008218;28;20476;-64
2023/09/05 02:52:15;;;;;;;9.10;6.10;;;15.60;22.40;;;;;;5005977;28;20495;-64
2023/09/05 02:54:42;;;;;;;10.57;6.57;;;15.60;22.40;;;;;;5007921;28;20483;-64
2023/09/05 02:57:09;;;;;;;10.53;6.53;;;15.60;22.40;;;;;;5002631;28;20984;-64
2023/09/05 02:59:35;;;;;;;8.10;5.00;;;15.50;22.70;;;;;;5006881;28;20471;-64
2023/09/05 03:02:02;;;;;;;9.50;5.80;;;15.50;23.00;;;;;;5005607;28;20475;-64
2023/09/05 03:04:32;;;;;;;8.93;5.80;;;15.50;23.10;;;;;;5005179;28;20510;-64
2023/09/05 03:07:01;;;;;;;8.50;6.00;;;15.40;23.10;;;;;;5004828;28;20538;-64
2023/09/05 03:09:29;;;;;;;9.87;5.87;;;15.50;23.20;;;;;;5004640;28;20495;-64
2023/09/05 03:11:56;;;;;;;11.50;6.40;;;15.50;23.20;;;;;;5002317;28;20986;-64
2023/09/05 03:14:23;;;;;;;8.60;5.93;;;15.40;23.20;;;;;;5006952;28;20523;-62
2023/09/05 03:16:50;;;;;;;10.37;6.10;;;15.40;23.90;;;;;;5006250;28;20557;-62
2023/09/05 03:19:16;;;;;;;9.70;5.37;;;15.40;23.30;;;;;;5003231;28;20471;-62
2023/09/05 03:21:43;;;;;;;9.03;5.47;;;15.40;23.40;;;;;;5007255;28;20860;-62
2023/09/05 03:24:10;;;;;;;9.57;6.13;;;15.40;23.50;;;;;;5005884;28;20487;-62
2023/09/05 03:26:38;;;;;;;9.47;5.87;;;15.30;23.70;;;;;;5003933;28;20468;-62
2023/09/05 03:29:06;;;;;;;9.50;5.50;;;15.30;23.90;;;;;;5007927;28;20459;-62
2023/09/05 03:31:33;;;;;;;8.03;5.43;;;15.30;24.20;;;;;;5003334;28;20835;-62
2023/09/05 03:34:00;;;;;;;8.20;5.27;;;15.30;24.30;;;;;;5006786;28;20495;-64
2023/09/05 03:36:26;;;;;;;8.80;5.43;;;15.30;24.50;;;;;;5006756;28;20467;-64
2023/09/05 03:38:53;;;;;;;7.87;5.27;;;15.20;24.50;;;;;;5008364;28;20595;-64
2023/09/05 03:41:20;;;;;;;9.90;5.60;;;15.20;24.40;;;;;;5005891;28;20464;-64
2023/09/05 03:43:48;;;;;;;7.60;5.30;;;15.30;24.40;;;;;;5003153;28;20844;-64
2023/09/05 03:46:15;;;;;;;8.30;6.00;;;15.30;24.30;;;;;;5007281;28;20464;-64
2023/09/05 03:48:41;;;;;;;9.07;5.10;;;15.30;24.30;;;;;;5008874;28;20463;-65
2023/09/05 03:51:08;;;;;;;6.90;4.73;;;15.30;24.60;;;;;;5005916;28;20468;-64
2023/09/05 03:53:35;;;;;;;8.43;5.03;;;15.30;24.40;;;;;;5003468;28;20574;-64
2023/09/05 03:56:02;;;;;;;9.13;5.30;;;15.30;24.40;;;;;;5004737;28;20467;-64
2023/09/05 03:58:28;;;;;;;7.40;5.23;;;15.30;24.50;;;;;;5006820;28;20487;-64
2023/09/05 04:00:57;;;;;;;8.50;4.77;;;15.30;24.50;;;;;;4998620;28;20483;-64
2023/09/05 04:03:23;;;;;;;9.40;5.70;;;15.30;24.60;;;;;;5002156;28;20488;-64
2023/09/05 04:05:50;;;;;;;8.73;5.77;;;15.30;24.50;;;;;;5001939;28;21986;-64
2023/09/05 04:08:17;;;;;;;7.57;5.50;;;15.30;24.70;;;;;;5006542;28;20464;-64
2023/09/05 04:10:44;;;;;;;8.63;5.90;;;15.30;24.80;;;;;;5005649;28;20468;-64
2023/09/05 04:13:10;;;;;;;10.77;5.80;;;15.30;24.90;;;;;;5004502;28;20483;-64
2023/09/05 04:15:37;;;;;;;7.37;5.27;;;15.30;24.90;;;;;;4999167;28;20506;-64
2023/09/05 04:18:06;;;;;;;8.83;5.83;;;15.30;24.90;;;;;;5003836;28;20502;-64
2023/09/05 04:20:33;;;;;;;7.87;5.27;;;15.30;24.80;;;;;;5004004;28;20472;-64
2023/09/05 04:22:59;;;;;;;8.90;5.97;;;15.20;25.10;;;;;;5006543;28;20495;-64
2023/09/05 04:25:27;;;;;;;7.90;5.30;;;15.20;24.80;;;;;;5000657;28;20470;-64
2023/09/05 04:27:54;;;;;;;9.97;7.23;;;15.20;25.00;;;;;;5002881;28;20472;-64
2023/09/05 04:30:21;;;;;;;7.77;5.43;;;15.20;24.90;;;;;;5001086;28;20460;-64
2023/09/05 04:32:47;;;;;;;9.87;6.10;;;15.20;24.90;;;;;;5003405;28;20467;-64
2023/09/05 04:35:15;;;;;;;10.03;5.63;;;15.20;25.10;;;;;;5005937;28;20468;-64
2023/09/05 04:37:42;;;;;;;8.57;5.80;;;15.20;25.20;;;;;;5006459;28;20482;-64
2023/09/05 04:40:09;;;;;;;10.73;6.80;;;15.10;25.70;;;;;;5001512;28;20467;-64
2023/09/05 04:42:38;;;;;;;9.00;7.23;;;15.10;26.60;;;;;;5002974;28;20467;-67
2023/09/05 04:45:07;;;;;;;7.77;6.10;;;15.10;26.50;;;;;;5001023;28;20471;-64
2023/09/05 04:47:34;;;;;;;12.07;7.60;;;15.10;26.60;;;;;;5000363;28;20554;-64
2023/09/05 04:50:01;;;;;;;9.30;6.67;;;15.10;26.80;;;;;;4997807;28;20471;-64
2023/09/05 04:52:30;;;;;;;8.63;5.60;;;15.10;27.10;;;;;;5002976;28;20467;-64
2023/09/05 04:54:57;;;;;;;9.40;5.67;;;15.00;27.40;;;;;;5006195;28;20476;-64
2023/09/05 04:57:24;;;;;;;7.77;5.43;;;15.10;27.60;;;;;;5000287;28;20486;-64
2023/09/05 04:59:57;;;;;;;9.37;6.20;;;15.10;27.60;;;;;;5002957;28;20464;-62
2023/09/05 05:02:24;;;;;;;7.90;5.63;;;15.20;27.30;;;;;;5006155;28;20471;-64
2023/09/05 05:04:51;;;;;;;8.60;6.10;;;15.20;27.20;;;;;;4996505;28;20574;-64
2023/09/05 05:07:18;;;;;;;7.97;5.80;;;15.30;27.30;;;;;;5000296;28;20551;-64
2023/09/05 05:09:47;;;;;;;8.27;5.30;;;15.40;27.10;;;;;;5003324;28;20819;-64
2023/09/05 05:12:14;;;;;;;9.90;6.07;;;15.70;26.70;;;;;;5005858;28;20463;-64
2023/09/05 05:14:41;;;;;;;9.00;6.23;;;16.10;25.80;;;;;;5004366;28;20471;-64
2023/09/05 05:17:08;;;;;;;7.90;5.60;;;16.60;24.20;;;;;;5005124;28;20465;-64
2023/09/05 05:19:36;;;;;;;7.80;5.43;;;17.20;22.50;;;;;;5006343;28;21019;-64
2023/09/05 05:22:03;;;;;;;8.20;5.50;;;17.80;20.30;;;;;;5002074;28;20472;-64
2023/09/05 05:24:29;;;;;;;9.03;5.57;;;18.30;19.00;;;;;;5002827;28;20510;-64
2023/09/05 05:26:58;;;;;;;8.73;5.50;;;18.60;17.70;;;;;;5002562;28;20486;-64
2023/09/05 05:29:25;;;;;;;7.33;5.17;;;18.90;16.90;;;;;;5010417;28;20463;-64
2023/09/05 05:31:52;;;;;;;6.90;4.80;;;19.10;16.00;;;;;;5007043;28;20505;-64
2023/09/05 05:34:19;;;;;;;9.03;4.40;;;19.20;15.30;;;;;;5006686;28;20983;-64
2023/09/05 05:36:45;;;;;;;6.40;4.30;;;19.40;15.20;;;;;;5009653;28;20472;-65
2023/09/05 05:39:13;;;;;;;10.60;5.20;;;19.50;14.90;;;;;;5010399;28;20475;-64
2023/09/05 05:41:39;;;;;;;9.13;5.90;;;19.50;15.00;;;;;;5006490;28;20484;-65
2023/09/05 05:44:08;;;;;;;7.80;4.80;;;19.60;14.80;;;;;;5007079;28;20498;-64
2023/09/05 05:46:34;;;;;;;7.70;4.97;;;19.70;14.40;;;;;;5005586;28;20475;-64
2023/09/05 05:49:02;;;;;;;9.30;5.00;;;19.90;14.10;;;;;;5007409;28;20467;-64
2023/09/05 05:51:30;;;;;;;8.10;5.83;;;20.00;13.50;;;;;;5008539;28;20960;-64
2023/09/05 05:53:56;;;;;;;9.37;5.77;;;20.30;12.40;;;;;;5006221;28;20499;-64
2023/09/05 05:56:23;;;;;;;8.43;5.30;;;20.60;11.60;;;;;;5010174;28;20475;-64
2023/09/05 05:58:50;;;;;;;6.83;4.30;;;20.90;10.80;;;;;;5001699;28;20491;-64
2023/09/05 06:01:19;;;;;;;9.00;4.80;;;21.10;10.40;;;;;;5002902;28;20482;-64
2023/09/05 06:03:46;;;;;;;7.60;4.97;;;21.50;9.90;;;;;;5008059;28;20807;-64
2023/09/05 06:06:12;;;;;;;10.60;4.77;;;21.80;9.00;;;;;;5004231;28;20464;-62
2023/09/05 06:08:40;;;;;;;10.83;5.50;;;22.60;7.80;;;;;;5006574;28;20468;-62
2023/09/05 06:11:07;;;;;;;7.60;4.93;;;23.60;5.80;;;;;;5008583;28;20472;-62
2023/09/05 06:13:34;;;;;;;6.90;5.10;;;24.90;3.60;;;;;;5008341;28;20492;-62
2023/09/05 06:16:01;;;;;;;6.43;4.80;;;26.10;1.00;;;;;;5005041;28;20472;-62
2023/09/05 06:18:29;;;;;;;9.80;4.17;;;27.40;1.00;;;;;;5006719;28;20501;-64
2023/09/05 06:20:56;;;;;;;6.53;4.13;;;28.70;1.00;;;;;;5006763;28;20464;-63
2023/09/05 06:23:22;;;;;;;9.67;4.83;;;29.80;1.00;;;;;;5004900;28;20491;-64
2023/09/05 06:25:49;;;;;;;7.13;4.50;;;31.00;1.00;;;;;;5004744;28;20506;-63
2023/09/05 06:28:17;;;;;;;6.40;5.30;;;32.00;1.00;;;;;;5004496;28;20492;-63
2023/09/05 06:30:44;;;;;;;7.97;4.60;;;33.10;1.00;;;;;;5000985;28;20484;-63
2023/09/05 06:33:10;;;;;;;9.13;4.60;;;34.20;1.00;;;;;;4997735;28;20487;-63
2023/09/05 06:35:38;;;;;;;6.70;4.33;;;35.30;1.00;;;;;;5002801;28;20500;-63
2023/09/05 06:38:05;;;;;;;6.40;3.50;;;36.30;1.00;;;;;;5004455;28;20856;-63
2023/09/05 06:40:32;;;;;;;5.90;4.27;;;37.20;1.00;;;;;;5002268;28;20477;-63
2023/09/05 06:42:59;;;;;;;5.53;3.37;;;38.10;1.00;;;;;;5000254;28;20483;-63
2023/09/05 06:45:26;;;;;;;4.90;3.37;;;38.50;1.00;;;;;;5006642;28;20948;-63
2023/09/05 06:47:53;;;;;;;5.77;3.50;;;38.90;1.00;;;;;;5002486;28;20463;-63
2023/09/05 06:50:20;;;;;;;4.97;3.17;;;39.50;1.00;;;;;;5005654;28;20460;-64
2023/09/05 06:52:48;;;;;;;5.97;3.30;;;40.50;1.00;;;;;;5006437;28;20464;-64
2023/09/05 06:55:15;;;;;;;5.10;3.40;;;41.20;1.00;;;;;;5001092;28;20499;-64
2023/09/05 06:57:41;;;;;;;4.77;3.63;;;41.80;1.00;;;;;;5003759;28;20464;-63
2023/09/05 07:00:10;;;;;;;6.10;3.60;;;42.50;1.00;;;;;;5001648;28;21087;-63
2023/09/05 07:02:37;;;;;;;4.83;2.83;;;43.10;1.00;;;;;;5006280;28;20571;-63
2023/09/05 07:05:04;;;;;;;4.17;3.00;;;43.70;1.00;;;;;;5000684;28;20470;-63
2023/09/05 07:07:30;;;;;;;4.63;3.23;;;44.10;1.00;;;;;;5005531;28;20475;-63
2023/09/05 07:09:59;;;;;;;4.50;3.60;;;44.70;1.00;;;;;;5003363;28;20648;-63
2023/09/05 07:12:26;;;;;;;5.90;3.20;;;45.30;1.00;;;;;;5003272;28;20480;-63
2023/09/05 07:14:53;;;;;;;5.83;3.33;;;45.70;1.00;;;;;;5006061;28;20494;-63
2023/09/05 07:17:19;;;;;;;8.83;3.27;;;46.20;1.00;;;;;;5007142;28;20507;-63
2023/09/05 07:19:46;;;;;;;7.30;2.73;;;46.40;1.00;;;;;;5005316;28;20484;-63
2023/09/05 07:22:13;;;;;;;5.83;2.70;;;46.70;1.00;;;;;;5006147;28;20558;-63
2023/09/05 07:24:40;;;;;;;4.50;2.33;;;46.90;1.00;;;;;;4996900;28;20497;-63
2023/09/05 07:27:08;;;;;;;3.67;2.13;;;47.40;1.00;;;;;;5000243;28;20470;-64
2023/09/05 07:29:34;;;;;;;4.17;2.83;;;47.50;1.00;;;;;;5009675;28;20475;-66
2023/09/05 07:32:02;;;;;;;5.70;2.70;;;47.70;1.00;;;;;;5008714;28;20563;-66
2023/09/05 07:34:29;;;;;;;6.80;2.90;;;47.90;1.00;;;;;;5001564;28;20549;-66
2023/09/05 07:36:56;;;;;;;5.97;3.13;;;47.90;1.00;;;;;;4995583;28;20468;-66
2023/09/05 07:39:24;;;;;;;5.30;2.27;;;47.90;1.00;;;;;;5004268;28;20487;-66
2023/09/05 07:41:51;;;;;;;3.50;2.53;;;48.10;1.00;;;;;;5001294;28;20479;-66
2023/09/05 07:44:19;;;;;;;4.57;2.60;;;48.10;1.00;;;;;;4997294;28;20480;-66
2023/09/05 07:46:46;;;;;;;4.00;2.23;;;47.90;1.00;;;;;;5060271;23;20505;-66
2023/09/05 07:49:15;;;;;;;4.00;2.00;;;47.90;1.00;;;;;;5019746;28;20577;-66
2023/09/05 07:51:42;;;;;;;4.07;2.33;;;48.40;1.00;;;;;;5013296;28;20959;-69
2023/09/05 07:54:10;;;;;;;3.57;2.30;;;49.30;1.00;;;;;;5016502;28;20563;-68
2023/09/05 07:56:37;;;;;;;4.53;2.23;;;49.80;1.00;;;;;;5019974;28;20955;-68
2023/09/05 07:59:05;;;;;;;4.23;2.40;;;50.30;1.00;;;;;;5015570;28;20482;-67
2023/09/05 08:01:33;;;;;;;3.90;1.97;;;50.80;1.00;;;;;;5020893;28;20541;-68
2023/09/05 08:04:00;;;;;;;4.43;2.03;;;51.00;1.00;;;;;;5022819;28;20478;-67
2023/09/05 08:06:28;;;;;;;3.90;2.70;;;50.40;1.00;;;;;;5024305;28;21190;-68
2023/09/05 08:08:55;;;;;;;4.00;2.17;;;49.90;1.00;;;;;;5020722;28;20471;-68
2023/09/05 08:11:22;;;;;;;4.30;2.03;;;50.00;1.00;;;;;;5028258;28;20473;-70
2023/09/05 08:13:49;;;;;;;3.87;2.10;;;50.30;1.00;;;;;;5028358;28;20490;-68
2023/09/05 08:16:15;;;;;;;4.40;2.30;;;50.00;1.00;;;;;;5024785;28;22855;-68
2023/09/05 08:18:43;;;;;;;3.87;2.23;;;49.70;1.00;;;;;;5020255;28;20463;-68
2023/09/05 08:21:10;;;;;;;5.40;2.50;;;50.10;1.00;;;;;;5021762;28;20493;-68
2023/09/05 08:23:37;;;;;;;4.30;2.40;;;50.70;1.00;;;;;;5020020;28;20502;-69
2023/09/05 08:26:04;;;;;;;4.07;2.57;;;50.90;1.00;;;;;;5015477;28;20474;-67
2023/09/05 08:28:33;;;;;;;6.53;3.73;;;50.80;1.00;;;;;;5016614;28;20474;-68
2023/09/05 08:31:01;;;;;;;5.13;2.63;;;51.40;1.00;;;;;;5020779;28;20470;-71
2023/09/05 08:33:28;;;;;;;3.70;2.30;;;51.40;1.00;;;;;;5023780;28;21024;-68
2023/09/05 08:35:56;;;;;;;3.57;1.93;;;51.80;1.00;;;;;;5022053;28;20549;-67
2023/09/05 08:38:23;;;;;;;3.10;1.90;;;52.10;1.00;;;;;;5019224;28;20943;-68
2023/09/05 08:40:50;;;;;;;5.03;2.33;;;51.90;1.00;;;;;;5021170;28;20500;-69
2023/09/05 08:43:18;;;;;;;4.97;2.57;;;51.80;1.00;;;;;;5031042;28;20525;-71
2023/09/05 08:45:46;;;;;;;4.40;2.40;;;51.80;1.00;;;;;;5032756;28;20469;-68
2023/09/05 08:48:13;;;;;;;3.63;2.23;;;52.10;1.00;;;;;;5030783;28;20572;-68
2023/09/05 08:50:41;;;;;;;3.40;2.00;;;52.20;1.00;;;;;;5030988;28;20539;-70
2023/09/05 08:53:11;;;;;;;3.50;2.20;;;51.40;1.00;;;;;;5032404;28;20493;-67
2023/09/05 08:55:40;;;;;;;4.00;2.20;;;51.00;1.00;;;;;;5027971;28;20478;-68
2023/09/05 08:58:10;;;;;;;4.07;2.30;;;50.70;1.00;;;;;;5032334;28;20485;-68
2023/09/05 09:00:37;;;;;;;3.80;2.37;;;50.30;1.00;;;;;;5030133;28;20468;-68
2023/09/05 09:03:06;;;;;;;3.33;1.80;;;50.50;1.00;;;;;;5032610;28;20493;-68
2023/09/05 09:05:33;;;;;;;3.73;2.10;;;51.00;1.00;;;;;;5035247;28;20458;-68
2023/09/05 09:08:01;;;;;;;3.70;2.13;;;50.80;1.00;;;;;;5034178;28;20459;-68
2023/09/05 09:10:29;;;;;;;3.10;1.77;;;50.60;1.00;;;;;;5032038;28;20461;-67
2023/09/05 09:13:13;;;;;;;5.50;2.33;;;50.10;1.00;;;;;;5035618;28;20465;-68
2023/09/05 09:15:43;;;;;;;3.80;2.30;;;49.70;1.00;;;;;;5032605;28;21039;-69
2023/09/05 09:18:12;;;;;;;4.17;2.10;;;48.50;1.00;;;;;;5032031;28;20454;-70
2023/09/05 09:20:43;;;;;;;3.87;2.10;;;48.70;1.00;;;;;;5031440;28;20576;-69
2023/09/05 09:23:10;;;;;;;5.60;2.83;;;49.50;1.00;;;;;;5027447;28;21203;-72
2023/09/05 09:25:47;;;;;;;4.90;1.73;;;49.80;1.00;;;;;;5029249;28;21261;-69
2023/09/05 09:28:21;;;;;;;4.77;2.37;;;49.90;1.00;;;;;;5024312;28;20469;-68
2023/09/05 09:30:56;;;;;;;3.60;1.97;;;49.90;1.00;;;;;;5027613;28;20474;-68
2023/09/05 09:33:24;;;;;;;3.77;2.17;;;50.40;1.00;;;;;;5033032;28;20492;-68
2023/09/05 09:36:05;;;;;;;4.33;1.80;;;51.20;1.00;;;;;;5026863;28;20454;-70
2023/09/05 09:38:31;;;;;;;3.77;2.27;;;51.60;1.00;;;;;;5029335;28;20547;-71
2023/09/05 09:41:02;;;;;;;5.20;1.90;;;51.80;1.00;;;;;;5030516;28;20486;-70
2023/09/05 09:43:29;;;;;;;4.07;1.93;;;51.80;1.00;;;;;;5027842;28;20493;-69
2023/09/05 09:45:57;;;;;;;5.70;2.30;;;52.10;1.00;;;;;;5032081;28;20972;-69
2023/09/05 09:48:27;;;;;;;6.03;2.50;;;52.50;1.00;;;;;;5026889;28;20969;-68
2023/09/05 09:50:56;;;;;;;3.70;1.83;;;52.70;1.00;;;;;;5033323;28;21163;-66
2023/09/05 09:53:30;;;;;;;3.50;1.80;;;53.20;1.00;;;;;;5028675;28;20854;-67
2023/09/05 09:55:57;;;;;;;3.27;1.70;;;53.20;1.00;;;;;;5024948;28;20501;-68
2023/09/05 09:58:27;;;;;;;4.87;2.00;;;52.40;1.00;;;;;;5022245;28;20470;-68
2023/09/05 10:00:55;;;;;;;5.00;2.30;;;52.10;1.00;;;;;;5021609;28;20498;-68
2023/09/05 10:03:24;;;;;;;4.70;2.10;;;52.20;1.00;;;;;;5024373;28;20486;-68
2023/09/05 10:05:53;;;;;;;3.27;1.47;;;52.80;1.00;;;;;;5025161;28;20470;-68
2023/09/05 10:08:21;;;;;;;3.60;1.93;;;53.40;1.00;;;;;;5022535;28;20459;-67
2023/09/05 10:10:51;;;;;;;5.17;2.03;;;53.70;1.00;;;;;;5021608;28;21137;-67
2023/09/05 10:13:17;;;;;;;4.03;1.83;;;53.80;1.00;;;;;;5027109;28;20486;-67
2023/09/05 10:15:49;;;;;;;3.10;1.70;;;53.80;1.00;;;;;;5020138;28;20477;-68
2023/09/05 10:18:17;;;;;;;3.20;1.70;;;53.40;1.00;;;;;;5025928;28;20839;-67
2023/09/05 10:20:45;;;;;;;4.00;1.90;;;52.80;1.00;;;;;;5024700;28;22614;-67
2023/09/05 10:23:13;;;;;;;3.60;1.53;;;52.60;1.00;;;;;;5027040;28;20576;-68
2023/09/05 10:25:42;;;;;;;3.80;2.07;;;51.90;1.00;;;;;;5024621;28;20836;-67
2023/09/05 10:28:09;;;;;;;5.20;2.10;;;52.10;1.00;;;;;;5020632;28;20470;-67
2023/09/05 10:30:40;;;;;;;4.00;1.90;;;51.80;1.00;;;;;;5024987;28;20455;-66
2023/09/05 10:33:09;;;;;;;3.10;1.80;;;51.70;1.00;;;;;;5022321;28;21120;-67
2023/09/05 10:35:35;;;;;;;3.93;1.60;;;51.80;1.00;;;;;;5023526;28;21139;-68
2023/09/05 10:38:07;;;;;;;3.87;2.20;;;51.50;1.00;;;;;;5018274;28;20477;-68
2023/09/05 10:40:35;;;;;;;3.70;1.70;;;51.10;1.00;;;;;;5023761;28;20995;-66
2023/09/05 10:43:04;;;;;;;3.37;1.90;;;50.60;1.00;;;;;;5025582;28;20610;-67
2023/09/05 10:45:33;;;;;;;4.50;1.70;;;50.00;1.00;;;;;;5024568;28;20477;-67
2023/09/05 10:48:31;;;;;;;4.50;2.10;;;49.70;1.00;;;;;;5015737;28;20977;-67
2023/09/05 10:51:06;;;;;;;3.50;1.60;;;48.70;1.00;;;;;;5022152;28;20469;-68
2023/09/05 10:53:34;;;;;;;3.53;1.80;;;47.80;1.00;;;;;;5027349;28;20486;-67
2023/09/05 10:56:01;;;;;;;4.73;1.70;;;47.10;1.00;;;;;;5020224;28;20560;-66
2023/09/05 10:58:38;;;;;;;4.83;2.37;;;46.90;1.00;;;;;;5023852;28;20470;-67
2023/09/05 11:01:43;;;;;;;4.50;1.67;;;46.90;1.00;;;;;;5024312;28;20544;-66
2023/09/05 11:04:19;;;;;;;4.07;1.70;;;46.20;1.00;;;;;;5020490;28;21315;-66
2023/09/05 11:06:54;;;;;;;3.87;1.73;;;45.90;1.00;;;;;;5022398;28;20974;-67
2023/09/05 11:09:21;;;;;;;6.03;2.27;;;44.70;1.00;;;;;;5023467;22;20491;-66
2023/09/05 11:11:48;;;;;;;3.47;1.67;;;42.80;1.00;;;;;;5004755;28;20475;-66
2023/09/05 11:14:14;;;;;;;3.90;1.40;;;41.10;1.00;;;;;;5006157;28;20486;-66
2023/09/05 11:16:46;;;;;;;4.40;1.50;;;39.50;1.00;;;;;;5002098;28;20867;-66
2023/09/05 11:19:30;;;;;;;3.53;1.60;;;37.70;1.00;;;;;;5005896;28;20846;-66
2023/09/05 11:22:07;;;;;;;3.80;1.50;;;36.20;1.00;;;;;;5002303;28;20459;-66
2023/09/05 11:24:33;;;;;;;4.00;1.70;;;35.20;1.00;;;;;;5006456;28;20510;-66
2023/09/05 11:27:00;;;;;;;4.10;1.40;;;34.30;1.00;;;;;;5007560;28;20467;-66
2023/09/05 11:29:28;;;;;;;4.73;1.57;;;33.60;1.00;;;;;;5004262;28;20838;-66
2023/09/05 11:31:59;;;;;;;3.63;1.50;;;33.10;1.00;;;;;;5003971;28;20486;-65
2023/09/05 11:34:27;;;;;;;5.53;2.03;;;32.60;1.00;;;;;;4998195;28;21045;-66
2023/09/05 11:36:54;;;;;;;4.13;1.50;;;32.20;1.00;;;;;;5001728;28;20530;-65
2023/09/05 11:39:26;;;;;;;4.37;1.60;;;31.70;1.00;;;;;;5003052;28;20499;-65
2023/09/05 11:41:54;;;;;;;3.87;1.80;;;31.10;1.00;;;;;;5006497;28;20483;-66
2023/09/05 11:44:35;;;;;;;4.37;2.10;;;30.80;1.00;;;;;;5002915;28;20562;-65
2023/09/05 11:47:02;;;;;;;3.97;1.80;;;30.40;1.00;;;;;;5003547;28;20480;-65
2023/09/05 11:49:31;;;;;;;3.90;1.47;;;30.10;1.00;;;;;;5005449;28;20480;-65
2023/09/05 11:52:00;;;;;;;3.87;1.33;;;29.70;1.00;;;;;;5005642;28;20586;-65
2023/09/05 11:54:28;;;;;;;4.30;1.83;;;29.50;1.00;;;;;;5002597;28;20485;-65
2023/09/05 11:56:55;;;;;;;4.97;1.70;;;29.30;1.00;;;;;;5007145;28;20476;-65
2023/09/05 11:59:23;;;;;;;9.13;2.23;;;29.10;1.00;;;;;;5003159;28;20483;-65
2023/09/05 12:01:50;;;;;;;3.70;1.60;;;29.00;1.00;;;;;;5002758;28;20486;-65
2023/09/05 12:04:17;;;;;;;5.77;2.03;;;28.80;1.00;;;;;;5003935;28;20524;-65
2023/09/05 12:06:49;;;;;;;4.13;1.60;;;28.70;1.00;;;;;;5006494;28;20471;-65
2023/09/05 12:09:16;;;;;;;4.13;1.60;;;28.60;1.00;;;;;;5005833;28;20475;-65
2023/09/05 12:11:43;;;;;;;4.00;1.77;;;28.50;1.00;;;;;;5003226;28;20469;-65
2023/09/05 12:14:10;;;;;;;5.73;1.67;;;28.30;1.00;;;;;;4999634;28;21174;-65
2023/09/05 12:16:37;;;;;;;5.87;2.00;;;28.30;1.00;;;;;;5002703;28;20468;-65
2023/09/05 12:19:03;;;;;;;6.50;1.93;;;28.10;1.00;;;;;;5005002;28;20540;-65
2023/09/05 12:21:40;;;;;;;4.33;1.50;;;28.00;1.00;;;;;;5007176;28;20479;-65
2023/09/05 12:24:20;;;;;;;4.70;2.40;;;28.00;1.00;;;;;;5000525;28;20511;-65
2023/09/05 12:26:47;;;;;;;3.90;1.70;;;27.80;1.00;;;;;;5002031;28;20525;-65
2023/09/05 12:29:15;;;;;;;4.70;1.57;;;27.60;1.00;;;;;;5005012;28;20968;-65
2023/09/05 12:31:44;;;;;;;4.43;2.20;;;27.50;1.00;;;;;;5003428;28;21004;-65
2023/09/05 12:34:11;;;;;;;6.33;2.10;;;27.30;1.00;;;;;;5004734;28;21010;-65
2023/09/05 12:36:38;;;;;;;5.10;1.60;;;27.20;1.00;;;;;;5003675;28;20893;-65
2023/09/05 12:39:05;;;;;;;5.03;1.60;;;27.20;1.00;;;;;;5005191;28;20476;-64
2023/09/05 12:41:34;;;;;;;4.80;2.00;;;27.00;1.00;;;;;;5003631;28;20542;-65
2023/09/05 12:44:01;;;;;;;3.73;1.63;;;27.00;1.00;;;;;;5004845;28;20488;-65
2023/09/05 12:46:30;;;;;;;4.77;2.03;;;26.80;1.00;;;;;;5005501;28;20467;-65
2023/09/05 12:48:57;;;;;;;3.60;1.60;;;26.70;1.00;;;;;;5003070;28;20482;-65
2023/09/05 12:51:24;;;;;;;3.80;1.90;;;26.60;1.00;;;;;;5006570;28;20464;-65
2023/09/05 12:53:52;;;;;;;4.97;1.70;;;26.50;1.00;;;;;;5004281;28;20483;-65
2023/09/05 12:56:19;;;;;;;4.60;2.23;;;26.50;1.00;;;;;;5002806;28;20459;-65